Dades meteomassalio
Diari Summary for Juliol 23, 2017 Units:  Metric    English   Both
« Previous Day
Next Day »
Diari Semanal Mensual Anual Personalitzat
  Maxima: Minima: Mijana:
Temperatura: -17.8 °C -8.4 °C -5.3 °C
Rosada: -17.8 °C -9.7 °C -8.4 °C
Humitat: Humidity % 54 % 72 %
Velocitat del vent: 0 km/h 0 km/h 9.8 km/h
Racha vent: 0 km/h - -
Vent:- - SSW
Pressio: 0 hPa 34337.4 hPa -
Pluja: 226.06 mm    
Historical Graphs
 
 
Tabular Data for Juliol 23, 2017
Time Temperature Dew Point Pressure Wind Wind Speed Wind Gust Humidity Rainfall Rate (Hourly) solar Conditions
-17.8 °C -17.8 °C 0 hPa Calm     Humidity % 0 mm SolarRadiationWatts/m^2 W/m2 Conditions
00:02 -4.1 °C -6.5 °C 34337.4 hPa Calm     77 % 0 mm 0.0 W/m2 RA
00:07 -4.2 °C -6.6 °C 34337.4 hPa Calm     77 % 0 mm 0.0 W/m2 CLR
00:12 -4.2 °C -6.5 °C 34337.4 hPa Calm     78 % 0 mm 0.0 W/m2 CLR
00:17 -4.3 °C -6.6 °C 34337.4 hPa Calm     78 % 0 mm 0.0 W/m2 CLR
00:22 -4.4 °C -6.6 °C 34337.4 hPa Calm     79 % 0 mm 0.0 W/m2 CLR
00:27 -4.4 °C -6.6 °C 34337.4 hPa Calm     79 % 0 mm 0.0 W/m2 CLR
00:32 -4.5 °C -6.5 °C 34337.4 hPa Calm     80 % 0 mm 0.0 W/m2 CLR
00:37 -4.5 °C -6.6 °C 34337.4 hPa Calm     80 % 0 mm 0.0 W/m2 CLR
00:39 -4.6 °C -6.6 °C 34337.4 hPa Calm     80 % 0 mm 0.0 W/m2 CLR
00:44 -4.7 °C -6.6 °C 34347.6 hPa Calm     81 % 0 mm 0.0 W/m2 CLR
00:49 -4.7 °C -6.6 °C 34347.6 hPa Calm     81 % 0 mm 0.0 W/m2 CLR
00:54 -4.8 °C -6.7 °C 34347.6 hPa Calm     81 % 0 mm 0.0 W/m2 CLR
00:59 -4.8 °C -6.7 °C 34347.6 hPa Calm     81 % 0 mm 0.0 W/m2 CLR
01:04 -4.8 °C -6.7 °C 34347.6 hPa Calm     81 % 0 mm 0.0 W/m2 CLR
01:09 -4.7 °C -6.8 °C 34347.6 hPa Calm     80 % 0 mm 0.0 W/m2 CLR
01:14 -4.7 °C -6.8 °C 34347.6 hPa Calm     80 % 0 mm 0.0 W/m2 CLR
01:19 -4.8 °C -6.8 °C 34347.6 hPa Calm     80 % 0 mm 0.0 W/m2 CLR
01:24 -4.8 °C -6.7 °C 34347.6 hPa Calm     81 % 0 mm 0.0 W/m2 CLR
01:29 -4.8 °C -6.9 °C 34347.6 hPa Calm     80 % 0 mm 0.0 W/m2 CLR
01:34 -4.7 °C -6.8 °C 34361.1 hPa Calm     79 % 0 mm 0.0 W/m2 CLR
01:39 -4.6 °C -6.7 °C 34361.1 hPa Calm     79 % 0 mm 0.0 W/m2 CLR
01:44 -4.7 °C -6.8 °C 34361.1 hPa Calm     79 % 0 mm 0.0 W/m2 CLR
01:49 -4.8 °C -6.8 °C 34361.1 hPa Calm     80 % 0 mm 0.0 W/m2 CLR
01:54 -4.9 °C -6.8 °C 34361.1 hPa Calm     81 % 0 mm 0.0 W/m2 CLR
01:59 -5.1 °C -6.8 °C 34371.3 hPa Calm     82 % 0 mm 0.0 W/m2 CLR
02:04 -5.2 °C -6.8 °C 34371.3 hPa Calm     83 % 0 mm 0.0 W/m2 CLR
02:09 -5.2 °C -6.8 °C 34371.3 hPa Calm     84 % 0 mm 0.0 W/m2 CLR
02:14 -5.3 °C -6.9 °C 34371.3 hPa Calm     84 % 0 mm 0.0 W/m2 CLR
02:19 -5.4 °C -6.9 °C 34371.3 hPa Calm     85 % 0 mm 0.0 W/m2 CLR
02:24 -5.6 °C -7.1 °C 34371.3 hPa Calm     85 % 0 mm 0.0 W/m2 CLR
02:29 -5.6 °C -7 °C 34384.8 hPa Calm     86 % 0 mm 0.0 W/m2 CLR
02:34 -5.6 °C -7 °C 34384.8 hPa NW 47.6 km/h 47.6 km/h 86 % 0 mm 0.0 W/m2 CLR
02:39 -5.6 °C -7.6 °C 34395 hPa NW 41.7 km/h 41.7 km/h 80 % 0 mm 0.0 W/m2 CLR
02:44 -5.7 °C -8.1 °C 34395 hPa NW 41.7 km/h 41.7 km/h 77 % 0 mm 0.0 W/m2 CLR
02:49 -5.8 °C -8.3 °C 34395 hPa WNW 44.7 km/h 44.7 km/h 76 % 0 mm 0.0 W/m2 CLR
02:54 -5.9 °C -8.5 °C 34395 hPa NNW 41.7 km/h 41.7 km/h 75 % 0 mm 0.0 W/m2 CLR
02:59 -5.9 °C -8.7 °C 34395 hPa WNW 41.7 km/h 41.7 km/h 74 % 0 mm 0.0 W/m2 CLR
03:04 -5.9 °C -8.7 °C 34395 hPa NW 29.8 km/h 29.8 km/h 73 % 0 mm 0.0 W/m2 CLR
03:09 -5.9 °C -8.9 °C 34405.1 hPa NW 29.8 km/h 29.8 km/h 72 % 0 mm 0.0 W/m2 CLR
03:14 -5.9 °C -8.8 °C 34405.1 hPa WNW 9 km/h 9 km/h 73 % 0 mm 0.0 W/m2 CLR
03:19 -6 °C -8.8 °C 34405.1 hPa Calm     73 % 0 mm 0.0 W/m2 CLR
03:24 -6.1 °C -8.8 °C 34405.1 hPa Calm     73 % 0 mm 0.0 W/m2 CLR
03:29 -6.1 °C -8.8 °C 34405.1 hPa Calm     73 % 0 mm 0.0 W/m2 CLR
03:34 -6 °C -8.9 °C 34405.1 hPa Calm     72 % 0 mm 0.0 W/m2 CLR
03:39 -6 °C -9.1 °C 34405.1 hPa Calm     71 % 0 mm 0.0 W/m2 CLR
03:44 -6.1 °C -9.1 °C 34418.7 hPa Calm     71 % 0 mm 0.0 W/m2 CLR
03:49 -6.1 °C -9 °C 34418.7 hPa Calm     72 % 0 mm 0.0 W/m2 CLR
03:54 -6.1 °C -9.1 °C 34418.7 hPa Calm     71 % 0 mm 0.0 W/m2 CLR
03:59 -6.1 °C -9 °C 34428.8 hPa Calm     72 % 0 mm 0.0 W/m2 CLR
04:04 -6.2 °C -9.1 °C 34418.7 hPa Calm     72 % 0 mm 0.0 W/m2 CLR
04:09 -6.2 °C -9.1 °C 34418.7 hPa Calm     72 % 0 mm 0.0 W/m2 CLR
04:14 -6.2 °C -9.1 °C 34428.8 hPa Calm     72 % 0 mm 0.0 W/m2 CLR
04:19 -6.3 °C -9.2 °C 34428.8 hPa WSW 17.9 km/h 17.9 km/h 72 % 0 mm 0.0 W/m2 CLR
04:24 -6.3 °C -9.3 °C 34428.8 hPa West 23.3 km/h 23.3 km/h 71 % 0 mm 0.0 W/m2 CLR
04:29 -6.3 °C -9.3 °C 34428.8 hPa WSW 15 km/h 15 km/h 71 % 0 mm 0.0 W/m2 CLR
04:34 -6.3 °C -9.4 °C 34428.8 hPa West 23.8 km/h 23.8 km/h 70 % 0 mm 0.0 W/m2 CLR
04:39 -6.3 °C -9.4 °C 34428.8 hPa West 26.9 km/h 26.9 km/h 70 % 0 mm 0.0 W/m2 CLR
04:44 -6.3 °C -9.4 °C 34428.8 hPa WSW 20.9 km/h 20.9 km/h 70 % 0 mm 0.0 W/m2 CLR
04:49 -6.3 °C -9.4 °C 34428.8 hPa WNW 17.9 km/h 17.9 km/h 70 % 0 mm 0.0 W/m2 CLR
04:54 -6.3 °C -9.5 °C 34428.8 hPa West 29.8 km/h 29.8 km/h 70 % 0 mm 0.0 W/m2 CLR
04:59 -6.3 °C -9.5 °C 34428.8 hPa West 17.9 km/h 17.9 km/h 70 % 0 mm 0.0 W/m2 CLR
05:04 -6.4 °C -9.6 °C 34442.4 hPa WSW 20.8 km/h 20.8 km/h 70 % 0 mm 0.0 W/m2 CLR
05:09 -6.4 °C -9.4 °C 34428.8 hPa Calm     71 % 0 mm 0.0 W/m2 CLR
05:14 -6.4 °C -9.6 °C 34442.4 hPa West 20.9 km/h 20.9 km/h 70 % 0 mm 0.0 W/m2 CLR
05:19 -6.4 °C -9.5 °C 34442.4 hPa West 26.9 km/h 26.9 km/h 71 % 0 mm 0.0 W/m2 CLR
05:24 -6.5 °C -9.6 °C 34442.4 hPa West 20.9 km/h 20.9 km/h 71 % 0 mm 0.0 W/m2 CLR
05:30 -6.5 °C -9.6 °C 34442.4 hPa West 26.9 km/h 26.9 km/h 71 % 0 mm 0.0 W/m2 CLR
05:35 -6.6 °C -9.6 °C 34442.4 hPa West 17.9 km/h 17.9 km/h 71 % 0 mm 0.0 W/m2 CLR
05:40 -6.6 °C -9.6 °C 34452.6 hPa West 29.8 km/h 29.8 km/h 71 % 0 mm 0.0 W/m2 CLR
05:45 -6.6 °C -9.6 °C 34452.6 hPa West 15 km/h   71 % 0 mm 0.0 W/m2 CLR
05:50 -6.6 °C -9.6 °C 34452.6 hPa West 20.9 km/h 20.9 km/h 71 % 0 mm 0.0 W/m2 CLR
05:55 -6.6 °C -9.6 °C 34452.6 hPa Calm     71 % 0 mm 0.0 W/m2 CLR
06:00 -6.6 °C -9.6 °C 34452.6 hPa West 28.5 km/h 28.5 km/h 71 % 0 mm 0.0 W/m2 CLR
06:05 -6.6 °C -9.6 °C 34462.7 hPa West 15 km/h 15 km/h 71 % 0 mm 0.0 W/m2 CLR
06:10 -6.6 °C -9.6 °C 34462.7 hPa West 17.9 km/h 17.9 km/h 71 % 0 mm 0.0 W/m2 CLR
06:15 -6.6 °C -9.6 °C 34462.7 hPa West 17.9 km/h 17.9 km/h 71 % 0 mm 0.0 W/m2 CLR
06:20 -6.6 °C -9.7 °C 34462.7 hPa WSW 11.9 km/h 11.9 km/h 71 % 0 mm 0.0 W/m2 CLR
06:25 -6.7 °C -9.6 °C 34462.7 hPa Calm   3.4 km/h 72 % 0 mm 0.0 W/m2 CLR
06:30 -6.7 °C -9.6 °C 34462.7 hPa West 20.9 km/h 20.9 km/h 72 % 0 mm 0.0 W/m2 CLR
06:35 -6.7 °C -9.6 °C 34462.7 hPa West 9 km/h 9 km/h 72 % 0 mm 0.0 W/m2 CLR
06:40 -6.7 °C -9.6 °C 34462.7 hPa West 11.9 km/h 11.9 km/h 72 % 0 mm 0.0 W/m2 OVC
06:45 -6.7 °C -9.6 °C 34462.7 hPa Calm     72 % 0 mm 0.0 W/m2 OVC
06:50 -6.7 °C -9.6 °C 34462.7 hPa Calm     72 % 0 mm 0.0 W/m2 OVC
06:55 -6.8 °C -9.7 °C 34462.7 hPa WSW 7.7 km/h 7.7 km/h 72 % 0 mm 5.0 W/m2 OVC
07:00 -6.8 °C -9.7 °C 34476.3 hPa Calm     72 % 0 mm 7.0 W/m2 BKN
07:05 -6.8 °C -9.7 °C 34476.3 hPa WSW 9 km/h 9 km/h 72 % 0 mm 9.0 W/m2 BKN
07:10 -6.8 °C -9.7 °C 34476.3 hPa WSW 6 km/h   72 % 0 mm 11.0 W/m2 BKN
07:15 -6.8 °C -9.7 °C 34476.3 hPa Calm     72 % 0 mm 12.0 W/m2 BKN
07:20 -6.8 °C -9.6 °C 34476.3 hPa Calm     73 % 0 mm 16.0 W/m2 BKN
07:25 -6.8 °C -9.6 °C 34476.3 hPa Calm     73 % 0 mm 19.0 W/m2 BKN
07:30 -6.8 °C -9.6 °C 34476.3 hPa Calm     73 % 0 mm 21.0 W/m2 BKN
07:35 -6.8 °C -9.6 °C 34486.4 hPa Calm     73 % 0 mm 21.0 W/m2 BKN
07:40 -6.8 °C -9.6 °C 34486.4 hPa Calm     73 % 0 mm 21.0 W/m2 BKN
07:45 -6.8 °C -9.6 °C 34476.3 hPa Calm     73 % 0 mm 28.0 W/m2 BKN
07:50 -6.8 °C -9.6 °C 34476.3 hPa Calm     73 % 0 mm 37.0 W/m2 BKN
07:55 -6.8 °C -9.7 °C 34476.3 hPa Calm   0.3 km/h 72 % 0 mm 33.0 W/m2 BKN
08:00 -6.7 °C -9.5 °C 34476.3 hPa Calm     73 % 0 mm 44.0 W/m2 BKN
08:05 -6.7 °C -9.6 °C 34486.4 hPa Calm   1.6 km/h 72 % 0 mm 44.0 W/m2 BKN
08:10 -6.7 °C -9.6 °C 34486.4 hPa Calm     72 % 0 mm 47.0 W/m2 BKN
08:15 -6.6 °C -9.6 °C 34486.4 hPa Calm     72 % 0 mm 51.0 W/m2 SCT
08:20 -6.6 °C -9.5 °C 34486.4 hPa Calm     72 % 0 mm 51.0 W/m2 SCT
08:25 -6.6 °C -9.5 °C 34486.4 hPa Calm     72 % 0 mm 67.0 W/m2 SCT
08:30 -6.6 °C -9.4 °C 34486.4 hPa Calm     72 % 0 mm 69.0 W/m2 SCT
08:35 -6.6 °C -9.6 °C 34486.4 hPa West 11.9 km/h 11.9 km/h 71 % 0 mm 51.0 W/m2 SCT
08:40 -6.5 °C -9.6 °C 34476.3 hPa NW 12.9 km/h 12.9 km/h 71 % 0 mm 109.0 W/m2 FEW
08:45 -6.4 °C -9.6 °C 34486.4 hPa WNW 17.9 km/h 17.9 km/h 70 % 0 mm 70.0 W/m2 CLR
08:50 -6.4 °C -9.6 °C 34486.4 hPa NW 17.9 km/h 17.9 km/h 70 % 0 mm 88.0 W/m2 CLR
08:55 -6.4 °C -9.6 °C 34496.6 hPa NW 17.9 km/h 17.9 km/h 70 % 0 mm 100.0 W/m2 FEW
09:00 -6.4 °C -9.6 °C 34486.4 hPa WNW 11.9 km/h 11.9 km/h 70 % 0 mm 132.0 W/m2 CLR
09:05 -6.3 °C -9.6 °C 34496.6 hPa West 15.6 km/h 15.6 km/h 69 % 0 mm 114.0 W/m2 CLR
09:10 -6.4 °C -9.7 °C 34486.4 hPa West 9 km/h 9 km/h 69 % 0 mm 167.0 W/m2 CLR
09:15 -6.3 °C -9.6 °C 34496.6 hPa WNW 11.9 km/h 11.9 km/h 69 % 0 mm 151.0 W/m2 CLR
09:20 -6.3 °C -9.6 °C 34496.6 hPa WNW 6 km/h 6 km/h 69 % 0 mm 169.0 W/m2 CLR
09:25 -6.3 °C -9.6 °C 34496.6 hPa WNW 15 km/h 15 km/h 69 % 0 mm 146.0 W/m2 CLR
09:30 -6.3 °C -9.6 °C 34510.1 hPa WNW 15.6 km/h 15.6 km/h 69 % 0 mm 120.0 W/m2 CLR
09:35 -6.3 °C -9.7 °C 34510.1 hPa WNW 11.9 km/h 11.9 km/h 68 % 0 mm 153.0 W/m2 CLR
09:40 -6.3 °C -9.7 °C 34510.1 hPa WNW 20.9 km/h 20.9 km/h 68 % 0 mm 142.0 W/m2 CLR
09:45 -6.3 °C -9.6 °C 34496.6 hPa WNW 11.9 km/h 11.9 km/h 69 % 0 mm 163.0 W/m2 CLR
09:50 -6.3 °C -9.7 °C 34510.1 hPa West 17.9 km/h 17.9 km/h 68 % 0 mm 158.0 W/m2 CLR
09:55 -6.2 °C -9.6 °C 34510.1 hPa West 11.9 km/h 11.9 km/h 68 % 0 mm 197.0 W/m2 CLR
10:00 -6.2 °C -9.6 °C 34510.1 hPa West 17.9 km/h 17.9 km/h 68 % 0 mm 239.0 W/m2 CLR
10:05 -6.2 °C -9.6 °C 34510.1 hPa WNW 6 km/h 6 km/h 68 % 0 mm 225.0 W/m2 CLR
10:10 -6 °C -9.6 °C 34496.6 hPa WSW 15.6 km/h 15.6 km/h 67 % 0 mm 360.0 W/m2 CLR
10:15 -5.9 °C -9.4 °C 34496.6 hPa WNW 20.9 km/h 20.9 km/h 68 % 0 mm 387.0 W/m2 CLR
10:20 -5.8 °C -9.4 °C 34496.6 hPa WSW 20.9 km/h 20.9 km/h 66 % 0 mm 371.0 W/m2 CLR
10:25 -5.8 °C -9.6 °C 34496.6 hPa West 20.9 km/h 20.9 km/h 65 % 0 mm 211.0 W/m2 CLR
10:30 -5.9 °C -9.6 °C 34496.6 hPa West 11.9 km/h 11.9 km/h 66 % 0 mm 134.0 W/m2 CLR
10:35 -5.9 °C -9.6 °C 34496.6 hPa West 2.6 km/h 2.6 km/h 66 % 0 mm 181.0 W/m2 CLR
10:40 -5.8 °C -9.3 °C 34496.6 hPa West 10.3 km/h 10.3 km/h 67 % 0 mm 301.0 W/m2 CLR
10:45 -5.7 °C -9.6 °C 34496.6 hPa West 15 km/h 15 km/h 65 % 0 mm 221.0 W/m2 CLR
10:50 -5.7 °C -9.3 °C 34496.6 hPa WNW 17.9 km/h 17.9 km/h 66 % 0 mm 533.0 W/m2 CLR
10:55 -5.6 °C -9.6 °C 34496.6 hPa West 20.9 km/h 20.9 km/h 64 % 0 mm 250.0 W/m2 CLR
11:00 -5.6 °C -9.6 °C 34486.4 hPa West 10.3 km/h 10.3 km/h 64 % 0 mm 376.0 W/m2 CLR
11:05 -5.4 °C -9.4 °C 34486.4 hPa Calm     64 % 0 mm 763.0 W/m2 CLR
11:11 -5.3 °C -9.3 °C 34486.4 hPa Calm     64 % 0 mm 432.0 W/m2 CLR
11:16 -5.1 °C -9.2 °C 34486.4 hPa Calm   0.8 km/h 63 % 0 mm 496.0 W/m2 CLR
11:21 -4.9 °C -9.3 °C 34486.4 hPa Calm     61 % 0 mm 327.0 W/m2 CLR
11:26 -4.9 °C -9.4 °C 34496.6 hPa West 12.9 km/h 12.9 km/h 61 % 0 mm 309.0 W/m2 CLR
11:31 -5.1 °C -9.3 °C 34496.6 hPa Calm     62 % 0 mm 334.0 W/m2 CLR
11:36 -5 °C -9.3 °C 34496.6 hPa WNW 15 km/h 15 km/h 62 % 0 mm 413.0 W/m2 CLR
11:41 -4.9 °C -9.2 °C 34486.4 hPa Calm     62 % 0 mm 527.0 W/m2 CLR
11:46 -4.8 °C -9.3 °C 34486.4 hPa NNW 3.1 km/h   61 % 0 mm 621.0 W/m2 CLR
11:51 -4.7 °C -9.3 °C 34486.4 hPa Calm     60 % 0 mm 888.0 W/m2 CLR
11:56 -4.6 °C -9.1 °C 34486.4 hPa SSW 3.1 km/h 3.1 km/h 60 % 0 mm 888.0 W/m2 CLR
12:01 -4.4 °C -9 °C 34486.4 hPa Calm     60 % 0 mm 492.0 W/m2 CLR
12:06 -4.2 °C -9.2 °C 34486.4 hPa Calm     57 % 0 mm 506.0 W/m2 CLR
12:11 -4.1 °C -9 °C 34486.4 hPa Calm     58 % 0 mm 589.0 W/m2 CLR
12:16 -3.9 °C -8.7 °C 34486.4 hPa Calm     59 % 0 mm 969.0 W/m2 CLR
12:21 -3.7 °C -8.9 °C 34486.4 hPa Calm     56 % 0 mm 364.0 W/m2 CLR
12:26 -3.7 °C -8.8 °C 34476.3 hPa Calm     57 % 0 mm 605.0 W/m2 CLR
12:31 -3.7 °C -8.9 °C 34476.3 hPa Calm     56 % 0 mm 856.0 W/m2 CLR
12:36 -3.6 °C -8.7 °C 34462.7 hPa NE 9 km/h 9 km/h 57 % 0 mm 844.0 W/m2 CLR
12:41 -3.4 °C -8.7 °C 34462.7 hPa Calm     56 % 0 mm 868.0 W/m2 CLR
12:46 -3.4 °C -8.7 °C 34462.7 hPa NNE 5.1 km/h 5.1 km/h 56 % 0 mm 814.0 W/m2 CLR
12:51 -3.3 °C -8.6 °C 34462.7 hPa Calm     56 % 0 mm 861.0 W/m2 CLR
12:56 -3.1 °C -8.4 °C 34462.7 hPa Calm     56 % 0 mm 874.0 W/m2 CLR
13:01 -3.1 °C -8.5 °C 34462.7 hPa NE 3.1 km/h 3.1 km/h 55 % 0 mm 821.0 W/m2 CLR
13:06 -3.2 °C -8.6 °C 34476.3 hPa Calm     55 % 0 mm 833.0 W/m2 CLR
13:11 -3.2 °C -8.4 °C 34462.7 hPa NE 15 km/h 15 km/h 56 % 0 mm 837.0 W/m2 CLR
13:16 -3.1 °C -8.4 °C 34462.7 hPa Calm     56 % 0 mm 680.0 W/m2 CLR
13:21 -2.9 °C -8.4 °C 34462.7 hPa Calm     55 % 0 mm 536.0 W/m2 CLR
13:26 -2.8 °C -8.4 °C 34462.7 hPa Calm     54 % 0 mm 480.0 W/m2 CLR
13:31 -2.7 °C -8.3 °C 34462.7 hPa ESE 11.9 km/h 11.9 km/h 54 % 0 mm 512.0 W/m2 CLR
13:36 -2.7 °C -8.3 °C 34452.6 hPa Calm     54 % 0 mm 454.0 W/m2 CLR
13:41 -2.7 °C -8.3 °C 34452.6 hPa ENE 23.8 km/h 23.8 km/h 54 % 0 mm 454.0 W/m2 CLR
13:46 -2.7 °C -8.2 °C 34452.6 hPa ENE 26.9 km/h 26.9 km/h 55 % 0 mm 758.0 W/m2 CLR
13:51 -2.7 °C -8.3 °C 34442.4 hPa NE 17.9 km/h 17.9 km/h 54 % 0 mm 896.0 W/m2 CLR
13:56 -2.6 °C -8.2 °C 34442.4 hPa NE 23.8 km/h 23.8 km/h 54 % 0 mm 902.0 W/m2 CLR
14:01 -2.5 °C -8.1 °C 34442.4 hPa North 29.8 km/h 29.8 km/h 54 % 0 mm 902.0 W/m2 CLR
14:06 -2.4 °C -8.1 °C 34428.8 hPa NNE 17.9 km/h 17.9 km/h 54 % 0 mm 939.0 W/m2 CLR
14:12 -2.4 °C -7.9 °C 34428.8 hPa NE 29.8 km/h 29.8 km/h 55 % 0 mm 944.0 W/m2 CLR
14:17 -2.3 °C -8 °C 34428.8 hPa NE 26.9 km/h 26.9 km/h 54 % 0 mm 473.0 W/m2 CLR
14:22 -2.4 °C -8.1 °C 34428.8 hPa ENE 25.9 km/h 25.9 km/h 54 % 0 mm 520.0 W/m2 CLR
14:27 -2.4 °C -7.9 °C 34428.8 hPa East 6 km/h 6 km/h 55 % 0 mm 364.0 W/m2 CLR
14:32 -2.4 °C -7.9 °C 34428.8 hPa ENE 20.9 km/h 20.9 km/h 55 % 0 mm 954.0 W/m2 CLR
14:37 -2.2 °C -7.9 °C 34418.7 hPa NNE 3.1 km/h   54 % 0 mm 1063.0 W/m2 CLR
14:42 -1.9 °C -7.4 °C 34418.7 hPa ENE 11.9 km/h 11.9 km/h 55 % 0 mm 608.0 W/m2 CLR
14:47 -1.8 °C -7.1 °C 34418.7 hPa East 15 km/h 15 km/h 56 % 0 mm 1018.0 W/m2 CLR
14:52 -1.5 °C -7.1 °C 34418.7 hPa ENE 20.9 km/h 20.9 km/h 55 % 0 mm 1169.0 W/m2 CLR
14:57 -1.5 °C -7.1 °C 34405.1 hPa ESE 29.8 km/h 29.8 km/h 55 % 0 mm 364.0 W/m2 CLR
15:02 -2 °C -7.1 °C 34405.1 hPa NE 20.9 km/h 20.9 km/h 58 % 0 mm 223.0 W/m2 CLR
15:03 -2.1 °C -7.1 °C 34405.1 hPa ENE 20.9 km/h 20.9 km/h 58 % 0 mm 223.0 W/m2 CLR
15:08 -2.2 °C -6.9 °C 34405.1 hPa ENE 29.8 km/h 29.8 km/h 60 % 0 mm 139.0 W/m2 CLR
15:13 -2.4 °C -7.1 °C 34405.1 hPa East 17.9 km/h 17.9 km/h 60 % 0 mm 125.0 W/m2 CLR
15:18 -2.4 °C -7 °C 34405.1 hPa ENE 20.8 km/h 20.8 km/h 61 % 0 mm 114.0 W/m2 CLR
15:23 -2.5 °C -7.1 °C 34405.1 hPa East 23.8 km/h 23.8 km/h 61 % 0 mm 104.0 W/m2 CLR
15:28 -2.6 °C -7.1 °C 34405.1 hPa ENE 23.8 km/h 23.8 km/h 62 % 0 mm 97.0 W/m2 CLR
15:33 -2.7 °C -7.1 °C 34395 hPa ENE 17.9 km/h 17.9 km/h 62 % 0 mm 79.0 W/m2 CLR
15:38 -2.7 °C -7.1 °C 34395 hPa ENE 23.3 km/h 23.3 km/h 62 % 0 mm 70.0 W/m2 FEW
15:43 -2.8 °C -7.2 °C 34405.1 hPa ESE 29.8 km/h 29.8 km/h 62 % 0 mm 51.0 W/m2 FEW
15:48 -2.8 °C -7.2 °C 34405.1 hPa East 25.9 km/h 25.9 km/h 62 % 0 mm 42.0 W/m2 SCT
15:53 -2.8 °C -7.2 °C 34405.1 hPa ENE 17.9 km/h 17.9 km/h 62 % 0 mm 19.0 W/m2 BKN
15:58 -2.8 °C -7.1 °C 34418.7 hPa NNE 29.8 km/h 29.8 km/h 63 % 0 mm 18.0 W/m2 BKN
16:03 -3.1 °C -6.6 °C 34428.8 hPa NW 64.7 km/h 64.7 km/h 69 % 0 mm 5.0 W/m2 BKN
16:08 -4.2 °C -6.6 °C 34442.4 hPa ENE 32.8 km/h 32.8 km/h 77 % 7.62 mm 5.0 W/m2 RA
16:13 -4.6 °C -6.5 °C 34452.6 hPa NNW 51.8 km/h 51.8 km/h 81 % 38.1 mm 0.0 W/m2 RA
16:18 -5.1 °C -6.7 °C 34476.3 hPa NNW 47.6 km/h 47.6 km/h 84 % 50.8 mm 0.0 W/m2 RA
16:23 -5.3 °C -6.8 °C 34476.3 hPa Calm     85 % 147.32 mm 5.0 W/m2 RA
16:28 -5.4 °C -7 °C 34476.3 hPa NW 26.9 km/h 26.9 km/h 84 % 187.96 mm 5.0 W/m2 RA
16:31 -5.5 °C -7.3 °C 34462.7 hPa Calm     82 % 193.04 mm 5.0 W/m2 RA
16:40 -5.6 °C -7.2 °C 34462.7 hPa Calm     84 % 200.66 mm 5.0 W/m2 RA
16:45 -5.6 °C -7.1 °C 34476.3 hPa SE 15.6 km/h 15.6 km/h 85 % 200.66 mm 5.0 W/m2 OVC
16:50 -5.8 °C -7.3 °C 34476.3 hPa SE 15 km/h 15 km/h 85 % 205.74 mm 5.0 W/m2 RA
16:55 -6.1 °C -7.6 °C 34476.3 hPa South 47.6 km/h 47.6 km/h 85 % 205.74 mm 5.0 W/m2 OVC
17:00 -7.1 °C -8.6 °C 34442.4 hPa South 53.6 km/h 53.6 km/h 84 % 205.74 mm 7.0 W/m2 BKN
17:05 -7.3 °C -8.7 °C 34442.4 hPa SSE 67.3 km/h 67.3 km/h 86 % 213.36 mm 11.0 W/m2 RA
17:10 -7.7 °C -9 °C 34384.8 hPa SSE 69.8 km/h 69.8 km/h 87 % 213.36 mm 14.0 W/m2 RA
17:15 -8.2 °C -9.5 °C 34361.1 hPa SSE 80.3 km/h 80.3 km/h 86 % 180.34 mm 21.0 W/m2 BKN
17:20 -8.4 °C -9.6 °C 34395 hPa South 47.6 km/h 47.6 km/h 87 % 147.32 mm 35.0 W/m2 BKN
17:25 -8.3 °C -9.6 °C 34395 hPa South 41.7 km/h 41.7 km/h 86 % 63.5 mm 56.0 W/m2 BKN
17:30 -8.2 °C -9.5 °C 34395 hPa WSW 20.9 km/h 20.9 km/h 86 % 38.1 mm 188.0 W/m2 SCT
17:35 -8.1 °C -9.3 °C 34405.1 hPa Calm   1.3 km/h 87 % 25.4 mm 267.0 W/m2 CLR
17:40 -7.9 °C -9.1 °C 34418.7 hPa Calm     87 % 20.32 mm 824.0 W/m2 CLR
17:45 -7.7 °C -9 °C 34418.7 hPa WSW 10.3 km/h 10.3 km/h 86 % 20.32 mm 677.0 W/m2 CLR
17:50 -7.4 °C -8.7 °C 34405.1 hPa SSE 17.9 km/h 17.9 km/h 86 % 12.7 mm 573.0 W/m2 CLR
17:55 -7.2 °C -8.7 °C 34405.1 hPa SSW 29.8 km/h 29.8 km/h 84 % 12.7 mm 555.0 W/m2 CLR
18:00 -7 °C -8.7 °C 34405.1 hPa South 26.9 km/h 26.9 km/h 83 % 12.7 mm 541.0 W/m2 CLR
18:05 -6.8 °C -8.6 °C 34405.1 hPa South 23.3 km/h 23.3 km/h 82 % 12.7 mm 529.0 W/m2 CLR
18:10 -6.7 °C -8.5 °C 34405.1 hPa South 3.1 km/h   82 % 0 mm 513.0 W/m2 CLR
18:15 -6.6 °C -8.2 °C 34405.1 hPa SSW 9 km/h 9 km/h 83 % 0 mm 490.0 W/m2 CLR
18:20 -6.4 °C -8.2 °C 34405.1 hPa Calm     82 % 0 mm 480.0 W/m2 CLR
18:25 -6.2 °C -8.2 °C 34395 hPa SSW 9 km/h   80 % 0 mm 464.0 W/m2 CLR
18:30 -6.1 °C -8.1 °C 34384.8 hPa Calm     80 % 0 mm 446.0 W/m2 CLR
18:35 -5.9 °C -8 °C 34384.8 hPa WSW 11.9 km/h   79 % 0 mm 434.0 W/m2 CLR
18:40 -5.7 °C -7.9 °C 34384.8 hPa Calm     78 % 0 mm 415.0 W/m2 CLR
18:45 -5.6 °C -8.3 °C 34371.3 hPa Calm     74 % 0 mm 399.0 W/m2 CLR
18:50 -5.6 °C -8.1 °C 34371.3 hPa Calm     75 % 0 mm 383.0 W/m2 CLR
18:55 -5.4 °C -8 °C 34371.3 hPa Calm     75 % 0 mm 369.0 W/m2 CLR
19:01 -5.3 °C -8.1 °C 34371.3 hPa Calm     73 % 0 mm 355.0 W/m2 CLR
19:05 -5.2 °C -8.3 °C 34371.3 hPa Calm     71 % 0 mm 338.0 W/m2 CLR
19:10 -5.1 °C -8.3 °C 34371.3 hPa Calm     70 % 0 mm 322.0 W/m2 CLR
19:16 -4.9 °C -8.4 °C 34371.3 hPa Calm     68 % 0 mm 308.0 W/m2 CLR
19:21 -4.8 °C -8.4 °C 34371.3 hPa Calm     67 % 0 mm 294.0 W/m2 CLR
19:26 -4.6 °C -8.2 °C 34361.1 hPa Calm   0.5 km/h 67 % 0 mm 278.0 W/m2 CLR
19:31 -4.6 °C -8.4 °C 34361.1 hPa Calm     65 % 0 mm 262.0 W/m2 CLR
19:36 -4.4 °C -8 °C 34361.1 hPa Calm     67 % 0 mm 248.0 W/m2 CLR
19:41 -4.3 °C -8.1 °C 34361.1 hPa Calm     66 % 0 mm 169.0 W/m2 CLR
19:46 -4.4 °C -8 °C 34361.1 hPa Calm     67 % 0 mm 188.0 W/m2 CLR
19:51 -4.6 °C -8.1 °C 34361.1 hPa Calm     68 % 0 mm 144.0 W/m2 CLR
19:56 -4.6 °C -8.2 °C 34361.1 hPa Calm     67 % 0 mm 132.0 W/m2 CLR
20:01 -4.5 °C -8 °C 34361.1 hPa Calm     68 % 0 mm 174.0 W/m2 CLR
20:06 -4.4 °C -7.9 °C 34361.1 hPa Calm     68 % 0 mm 160.0 W/m2 CLR
20:11 -4.3 °C -7.9 °C 34371.3 hPa Calm     67 % 0 mm 139.0 W/m2 CLR
20:16 -4.1 °C -7.9 °C 34371.3 hPa Calm     66 % 0 mm 98.0 W/m2 CLR
20:21 -4.1 °C -7.7 °C 34371.3 hPa Calm     67 % 0 mm 42.0 W/m2 CLR
20:26 -4.2 °C -7.7 °C 34371.3 hPa Calm     68 % 0 mm 40.0 W/m2 SCT
20:31 -4.3 °C -7.7 °C 34371.3 hPa Calm     69 % 0 mm 67.0 W/m2 FEW
20:36 -4.3 °C -7.7 °C 34371.3 hPa Calm     69 % 0 mm 54.0 W/m2 SCT
20:41 -4.2 °C -7.2 °C 34371.3 hPa Calm     72 % 0 mm 54.0 W/m2 SCT
20:46 -4.2 °C -7.4 °C 34371.3 hPa Calm     70 % 0 mm 49.0 W/m2 SCT
20:51 -4.3 °C -7.7 °C 34371.3 hPa Calm     69 % 0 mm 46.0 W/m2 SCT
20:56 -4.4 °C -7.7 °C 34371.3 hPa Calm     70 % 0 mm 37.0 W/m2 BKN
21:01 -4.5 °C -7.4 °C 34371.3 hPa Calm     72 % 0 mm 25.0 W/m2 BKN
21:06 -4.7 °C -7.7 °C 34371.3 hPa Calm     72 % 0 mm 18.0 W/m2 BKN
21:11 -4.9 °C -7.7 °C 34371.3 hPa WSW 11.9 km/h 11.9 km/h 73 % 0 mm 12.0 W/m2 BKN
21:16 -5 °C -7.6 °C 34384.8 hPa Calm     75 % 7.62 mm 9.0 W/m2 RA
21:21 -5.1 °C -7.6 °C 34384.8 hPa SW 9 km/h 9 km/h 76 % 7.62 mm 5.0 W/m2
21:26 -5.2 °C -7.7 °C 34384.8 hPa Calm     76 % 7.62 mm 0.0 W/m2 CLR
21:31 -5.2 °C -7.8 °C 34384.8 hPa Calm     75 % 7.62 mm 0.0 W/m2 OVC
21:36 -5.3 °C -7.9 °C 34384.8 hPa Calm     75 % 7.62 mm 0.0 W/m2 CLR
21:41 -5.3 °C -7.9 °C 34395 hPa Calm     75 % 7.62 mm 0.0 W/m2 CLR
21:46 -5.3 °C -7.9 °C 34395 hPa Calm     75 % 7.62 mm 0.0 W/m2 CLR
21:51 -5.3 °C -7.9 °C 34395 hPa Calm     75 % 7.62 mm 0.0 W/m2 CLR
21:56 -5.3 °C -7.8 °C 34395 hPa Calm     76 % 7.62 mm 0.0 W/m2 CLR
22:01 -5.4 °C -7.9 °C 34405.1 hPa Calm     76 % 7.62 mm 0.0 W/m2 CLR
22:06 -5.4 °C -7.8 °C 34405.1 hPa Calm     77 % 7.62 mm 0.0 W/m2 CLR
22:11 -5.5 °C -7.7 °C 34405.1 hPa Calm     78 % 7.62 mm 0.0 W/m2 CLR
22:16 -5.6 °C -7.7 °C 34405.1 hPa Calm     79 % 0 mm 0.0 W/m2 CLR
22:21 -5.7 °C -7.7 °C 34405.1 hPa Calm     80 % 0 mm 0.0 W/m2 CLR
22:26 -5.8 °C -7.7 °C 34418.7 hPa Calm     81 % 0 mm 0.0 W/m2 CLR
22:31 -5.9 °C -7.8 °C 34418.7 hPa Calm     81 % 0 mm 0.0 W/m2 CLR
22:36 -5.9 °C -7.7 °C 34418.7 hPa Calm     82 % 0 mm 0.0 W/m2 CLR
22:41 -6 °C -7.7 °C 34428.8 hPa Calm     83 % 0 mm 0.0 W/m2 CLR
22:46 -6.2 °C -7.7 °C 34418.7 hPa Calm     84 % 0 mm 0.0 W/m2 CLR
22:51 -6.3 °C -7.6 °C 34428.8 hPa Calm     86 % 0 mm 0.0 W/m2 CLR
22:56 -6.3 °C -7.7 °C 34428.8 hPa Calm     86 % 0 mm 0.0 W/m2 CLR
23:01 -6.4 °C -7.8 °C 34428.8 hPa Calm     86 % 0 mm 0.0 W/m2 CLR
23:03 -6.5 °C -7.7 °C 34428.8 hPa Calm     87 % 0 mm 0.0 W/m2 CLR
23:08 -6.5 °C -7.7 °C 34428.8 hPa Calm     87 % 0 mm 0.0 W/m2 CLR
23:13 -6.6 °C -7.8 °C 34428.8 hPa Calm     87 % 0 mm 0.0 W/m2 CLR
23:18 -6.6 °C -7.7 °C 34428.8 hPa Calm     88 % 0 mm 0.0 W/m2 CLR
23:23 -6.6 °C -7.7 °C 34428.8 hPa Calm     88 % 0 mm 0.0 W/m2 CLR
23:28 -6.7 °C -7.8 °C 34428.8 hPa Calm     88 % 0 mm 0.0 W/m2 CLR
23:29 -6.7 °C -7.8 °C 34428.8 hPa Calm     88 % 0 mm 0.0 W/m2 CLR
23:34 -6.7 °C -7.9 °C 34428.8 hPa Calm     88 % 0 mm 0.0 W/m2 CLR
23:39 -6.8 °C -7.8 °C 34428.8 hPa Calm     89 % 0 mm 0.0 W/m2 CLR
23:44 -6.8 °C -7.9 °C 34428.8 hPa WSW 6 km/h   89 % 0 mm 0.0 W/m2 CLR
23:49 -6.9 °C -7.9 °C 34442.4 hPa Calm     89 % 0 mm 0.0 W/m2 CLR
23:54 -6.9 °C -7.9 °C 34442.4 hPa Calm     89 % 0 mm 0.0 W/m2 CLR
23:59 -6.9 °C -7.9 °C 34442.4 hPa Calm     89 % 0 mm 0.0 W/m2 CLR
Lo Temps de Massalio
Compliments of Weather Underground - 1.25 mb